createdAt,value
2023-02-26T00:01:24.468Z,94.50
2023-02-26T00:03:53.150Z,93.80
2023-02-26T00:06:20.787Z,93.90
2023-02-26T00:08:48.013Z,93.80
2023-02-26T00:11:15.654Z,95.50
2023-02-26T00:13:45.063Z,96.30
2023-02-26T00:16:32.317Z,97.20
2023-02-26T00:19:01.865Z,98.50
2023-02-26T00:21:29.993Z,98.80
2023-02-26T00:23:58.444Z,98.50
2023-02-26T00:26:27.618Z,97.80
2023-02-26T00:28:55.311Z,96.70
2023-02-26T00:31:25.915Z,96.00
2023-02-26T00:33:55.219Z,94.60
2023-02-26T00:36:58.069Z,93.60
2023-02-26T00:40:06.677Z,92.40
2023-02-26T00:42:34.027Z,91.20
2023-02-26T00:45:01.543Z,89.10
2023-02-26T00:48:05.288Z,88.70
2023-02-26T00:50:33.100Z,89.00
2023-02-26T00:53:34.362Z,89.20
2023-02-26T00:56:01.230Z,89.20
2023-02-26T00:58:28.128Z,89.90
2023-02-26T01:00:55.031Z,90.20
2023-02-26T01:03:22.501Z,91.00
2023-02-26T01:05:49.644Z,90.90
2023-02-26T01:08:27.408Z,90.10
2023-02-26T01:10:54.761Z,91.80
2023-02-26T01:13:22.078Z,92.40
2023-02-26T01:15:55.853Z,92.20
2023-02-26T01:18:31.085Z,91.20
2023-02-26T01:21:04.194Z,90.50
2023-02-26T01:23:41.365Z,88.60
2023-02-26T01:26:19.065Z,86.80
2023-02-26T01:28:46.560Z,86.50
2023-02-26T01:31:58.255Z,86.10
2023-02-26T01:34:39.672Z,84.70
2023-02-26T01:37:50.936Z,83.30
2023-02-26T01:40:53.641Z,82.10
2023-02-26T01:43:28.923Z,84.00
2023-02-26T01:46:21.731Z,83.00
2023-02-26T01:48:58.344Z,81.40
2023-02-26T01:51:47.930Z,79.90
2023-02-26T01:54:20.735Z,78.20
2023-02-26T01:56:53.597Z,76.60
2023-02-26T01:59:24.573Z,75.80
2023-02-26T02:01:54.357Z,75.40
2023-02-26T02:04:22.744Z,75.50
2023-02-26T02:06:50.112Z,75.50
2023-02-26T02:09:17.940Z,74.10
2023-02-26T02:12:20.522Z,72.60
2023-02-26T02:14:56.023Z,72.90
2023-02-26T02:17:56.014Z,71.90
2023-02-26T02:20:43.836Z,70.80
2023-02-26T02:23:50.282Z,70.10
2023-02-26T02:26:38.741Z,69.90
2023-02-26T02:29:33.775Z,66.30
2023-02-26T02:32:18.683Z,64.50
2023-02-26T02:35:37.141Z,62.60
2023-02-26T02:38:20.466Z,63.00
2023-02-26T02:40:52.846Z,63.70
2023-02-26T02:43:32.643Z,65.90
2023-02-26T02:46:22.924Z,66.00
2023-02-26T02:48:58.132Z,65.90
2023-02-26T02:51:36.006Z,64.50
2023-02-26T02:54:17.966Z,62.00
2023-02-26T02:56:52.029Z,61.30
2023-02-26T02:59:49.266Z,59.50
2023-02-26T03:02:42.506Z,58.40
2023-02-26T03:05:09.806Z,57.30
2023-02-26T03:07:43.545Z,57.00
2023-02-26T03:10:11.741Z,57.50
2023-02-26T03:12:38.608Z,57.70
2023-02-26T03:15:06.150Z,58.70
2023-02-26T03:18:46.537Z,59.10
2023-02-26T03:21:37.300Z,58.30
2023-02-26T03:24:18.643Z,58.60
2023-02-26T03:26:54.898Z,59.50
2023-02-26T03:30:03.448Z,59.20
2023-02-26T03:32:40.264Z,59.00
2023-02-26T03:35:18.160Z,60.20
2023-02-26T03:37:51.484Z,61.20
2023-02-26T03:40:40.695Z,61.00
2023-02-26T03:43:19.392Z,60.90
2023-02-26T03:45:51.334Z,61.00
2023-02-26T03:48:21.687Z,60.90
2023-02-26T03:50:51.405Z,60.80
2023-02-26T03:54:00.138Z,61.50
2023-02-26T03:56:37.110Z,61.10
2023-02-26T03:59:04.425Z,62.30
2023-02-26T04:01:41.230Z,63.20
2023-02-26T04:04:15.265Z,63.20
2023-02-26T04:06:43.353Z,65.10
2023-02-26T04:09:10.431Z,65.90
2023-02-26T04:11:38.746Z,65.60
2023-02-26T04:14:05.629Z,65.60
2023-02-26T04:16:32.593Z,65.60
2023-02-26T04:18:59.528Z,65.60
2023-02-26T04:21:26.494Z,65.10
2023-02-26T04:23:53.359Z,64.50
2023-02-26T04:26:20.293Z,63.40
2023-02-26T04:28:47.197Z,62.50
2023-02-26T04:31:14.323Z,62.60
2023-02-26T04:33:41.244Z,63.10
2023-02-26T04:36:09.086Z,63.20
2023-02-26T04:38:36.190Z,62.40
2023-02-26T04:41:03.106Z,62.80
2023-02-26T04:43:29.943Z,61.70
2023-02-26T04:45:56.891Z,60.80
2023-02-26T04:48:24.044Z,59.70
2023-02-26T04:50:51.059Z,60.70
2023-02-26T04:53:18.040Z,61.70
2023-02-26T04:55:44.902Z,61.90
2023-02-26T04:58:11.925Z,62.90
2023-02-26T05:00:39.063Z,62.90
2023-02-26T05:03:06.521Z,64.20
2023-02-26T05:05:33.492Z,65.30
2023-02-26T05:08:00.390Z,65.80
2023-02-26T05:10:27.210Z,68.40
2023-02-26T05:12:54.261Z,69.00
2023-02-26T05:15:21.147Z,69.90
2023-02-26T05:17:48.098Z,70.00
2023-02-26T05:20:15.553Z,67.50
2023-02-26T05:22:43.139Z,67.10
2023-02-26T05:25:14.408Z,65.40
2023-02-26T05:27:45.317Z,63.90
2023-02-26T05:30:16.063Z,64.10
2023-02-26T05:32:43.054Z,62.60
2023-02-26T05:35:10.524Z,62.60
2023-02-26T05:37:37.788Z,61.70
2023-02-26T05:40:09.429Z,61.80
2023-02-26T05:42:36.607Z,61.90
2023-02-26T05:45:06.162Z,62.70
2023-02-26T05:47:34.874Z,63.00
2023-02-26T05:50:02.029Z,62.50
2023-02-26T05:52:29.009Z,64.10
2023-02-26T05:54:56.202Z,63.90
2023-02-26T05:57:23.988Z,64.50
2023-02-26T05:59:51.295Z,64.50
2023-02-26T06:02:18.155Z,64.60
2023-02-26T06:04:45.302Z,64.00
2023-02-26T06:07:12.222Z,64.00
2023-02-26T06:09:39.488Z,64.10
2023-02-26T06:12:06.787Z,64.80
2023-02-26T06:14:34.887Z,65.40
2023-02-26T06:17:03.169Z,65.50
2023-02-26T06:19:30.042Z,65.90
2023-02-26T06:21:56.965Z,66.50
2023-02-26T06:24:23.838Z,66.50
2023-02-26T06:26:50.764Z,67.20
2023-02-26T06:29:18.646Z,67.80
2023-02-26T06:31:46.006Z,67.00
2023-02-26T06:34:13.192Z,66.90
2023-02-26T06:36:40.081Z,65.90
2023-02-26T06:39:08.064Z,65.90
2023-02-26T06:41:35.072Z,65.90
2023-02-26T06:44:01.915Z,65.50
2023-02-26T06:46:28.838Z,64.00
2023-02-26T06:48:55.794Z,62.60
2023-02-26T06:51:22.737Z,61.90
2023-02-26T06:53:49.616Z,60.80
2023-02-26T06:56:16.664Z,60.80
2023-02-26T06:58:43.599Z,60.70
2023-02-26T07:01:10.634Z,60.90
2023-02-26T07:03:37.538Z,61.40
2023-02-26T07:06:26.099Z,62.10
2023-02-26T07:08:53.911Z,62.00
2023-02-26T07:11:20.823Z,62.00
2023-02-26T07:13:47.823Z,62.30
2023-02-26T07:16:14.760Z,60.20
2023-02-26T07:18:41.643Z,56.50
2023-02-26T07:21:08.549Z,49.60
2023-02-26T07:23:35.571Z,47.80
2023-02-26T07:26:02.849Z,47.80
2023-02-26T07:28:29.876Z,48.20
2023-02-26T07:30:58.077Z,50.40
2023-02-26T07:33:26.646Z,45.20
2023-02-26T07:35:53.529Z,42.10
2023-02-26T07:38:20.839Z,23.10
2023-02-26T07:40:48.446Z,19.00
2023-02-26T07:43:15.393Z,17.30
2023-02-26T07:45:42.381Z,12.90
2023-02-26T07:48:09.264Z,1.30
2023-02-26T07:50:36.131Z,1.00
2023-02-26T07:53:03.094Z,1.00
2023-02-26T07:55:30.267Z,1.00
2023-02-26T07:57:57.194Z,1.00
2023-02-26T08:00:24.273Z,1.00
2023-02-26T08:02:51.154Z,1.00
2023-02-26T08:05:18.496Z,1.00
2023-02-26T08:07:45.430Z,1.00
2023-02-26T08:10:12.902Z,1.00
2023-02-26T08:12:39.794Z,1.00
2023-02-26T08:15:07.524Z,1.00
2023-02-26T08:17:34.535Z,1.00
2023-02-26T08:20:01.459Z,1.00
2023-02-26T08:22:28.336Z,1.00
2023-02-26T08:24:55.885Z,1.00
2023-02-26T08:27:22.764Z,1.00
2023-02-26T08:29:51.360Z,1.00
2023-02-26T08:32:20.035Z,1.00
2023-02-26T08:34:47.335Z,1.00
2023-02-26T08:37:14.591Z,1.00
2023-02-26T08:39:42.782Z,1.00
2023-02-26T08:42:10.371Z,1.00
2023-02-26T08:44:37.529Z,1.00
2023-02-26T08:47:04.572Z,1.00
2023-02-26T08:49:31.536Z,1.00
2023-02-26T08:51:58.641Z,1.00
2023-02-26T08:54:25.777Z,1.00
2023-02-26T08:56:55.842Z,1.00
2023-02-26T08:59:22.814Z,1.00
2023-02-26T09:01:49.906Z,1.00
2023-02-26T09:04:16.935Z,1.00
2023-02-26T09:06:43.956Z,1.00
2023-02-26T09:09:11.041Z,1.00
2023-02-26T09:11:38.005Z,1.00
2023-02-26T09:14:05.746Z,1.00
2023-02-26T09:16:35.484Z,1.00
2023-02-26T09:19:04.075Z,1.00
2023-02-26T09:21:31.436Z,1.00
2023-02-26T09:23:58.378Z,1.00
2023-02-26T09:26:25.927Z,1.00
2023-02-26T09:28:53.280Z,1.00
2023-02-26T09:31:20.171Z,1.00
2023-02-26T09:33:47.071Z,1.00
2023-02-26T09:36:14.176Z,1.00
2023-02-26T09:38:41.398Z,1.00
2023-02-26T09:41:30.123Z,1.00
2023-02-26T09:44:29.349Z,1.00
2023-02-26T09:47:23.816Z,1.00
2023-02-26T09:50:06.029Z,1.00
2023-02-26T09:52:46.892Z,1.00
2023-02-26T09:55:39.957Z,1.00
2023-02-26T09:58:24.087Z,1.00
2023-02-26T10:01:18.902Z,1.00
2023-02-26T10:04:20.641Z,1.00
2023-02-26T10:07:31.271Z,1.00
2023-02-26T10:10:45.071Z,1.00
2023-02-26T10:13:34.220Z,1.00
2023-02-26T10:16:12.657Z,1.00
2023-02-26T10:18:53.196Z,1.00
2023-02-26T10:21:37.561Z,1.00
2023-02-26T10:24:14.668Z,1.00
2023-02-26T10:26:58.729Z,1.00
2023-02-26T10:30:10.395Z,1.00
2023-02-26T10:33:21.164Z,1.00
2023-02-26T10:35:53.327Z,1.00
2023-02-26T10:38:30.520Z,1.00
2023-02-26T10:41:05.029Z,1.00
2023-02-26T10:43:40.514Z,1.00
2023-02-26T10:46:27.083Z,1.00
2023-02-26T10:49:35.268Z,1.00
2023-02-26T10:52:16.103Z,1.00
2023-02-26T10:55:18.782Z,1.00
2023-02-26T10:58:09.318Z,1.00
2023-02-26T11:00:36.232Z,1.00
2023-02-26T11:03:05.055Z,1.00
2023-02-26T11:05:34.095Z,1.00
2023-02-26T11:08:09.487Z,1.00
2023-02-26T11:10:54.257Z,1.00
2023-02-26T11:13:26.796Z,1.00
2023-02-26T11:15:56.348Z,1.00
2023-02-26T11:18:31.649Z,1.00
2023-02-26T11:21:00.612Z,1.00
2023-02-26T11:23:31.653Z,1.00
2023-02-26T11:26:05.455Z,1.00
2023-02-26T11:28:37.259Z,1.00
2023-02-26T11:31:10.913Z,1.00
2023-02-26T11:33:47.176Z,1.00
2023-02-26T11:36:18.064Z,1.00
2023-02-26T11:38:46.907Z,1.00
2023-02-26T11:41:14.450Z,1.00
2023-02-26T11:43:45.361Z,1.00
2023-02-26T11:46:13.763Z,1.00
2023-02-26T11:48:59.965Z,1.00
2023-02-26T11:51:29.223Z,1.00
2023-02-26T11:54:01.682Z,1.00
2023-02-26T11:56:44.094Z,1.00
2023-02-26T11:59:23.374Z,1.00
2023-02-26T12:01:52.712Z,1.00
2023-02-26T12:04:22.503Z,1.00
2023-02-26T12:06:52.307Z,1.00
2023-02-26T12:09:20.187Z,1.00
2023-02-26T12:12:43.633Z,1.00
2023-02-26T12:15:32.556Z,1.00
2023-02-26T12:18:42.670Z,1.00
2023-02-26T12:21:43.833Z,1.00
2023-02-26T12:24:42.483Z,1.00
2023-02-26T12:27:41.656Z,1.00
2023-02-26T12:30:39.323Z,1.00
2023-02-26T12:33:43.226Z,1.00
2023-02-26T12:37:05.499Z,1.00
2023-02-26T12:40:18.801Z,1.00
2023-02-26T12:43:17.334Z,1.00
2023-02-26T12:46:02.089Z,1.00
2023-02-26T12:49:04.369Z,1.00
2023-02-26T12:52:06.117Z,1.00
2023-02-26T12:55:24.389Z,1.00
2023-02-26T12:58:17.670Z,1.00
2023-02-26T13:01:13.610Z,1.00
2023-02-26T13:04:00.736Z,1.00
2023-02-26T13:06:52.847Z,1.00
2023-02-26T13:13:38.303Z,1.00
2023-02-26T13:17:07.310Z,1.00
2023-02-26T13:19:53.959Z,1.00
2023-02-26T13:22:27.262Z,1.00
2023-02-26T13:25:25.464Z,1.00
2023-02-26T13:27:57.015Z,1.00
2023-02-26T13:30:48.449Z,1.00
2023-02-26T13:33:22.236Z,1.00
2023-02-26T13:35:52.346Z,1.00
2023-02-26T13:39:05.348Z,1.00
2023-02-26T13:45:16.709Z,1.00
2023-02-26T13:48:31.641Z,1.00
2023-02-26T13:51:32.355Z,1.00
2023-02-26T13:54:33.001Z,1.00
2023-02-26T13:57:25.951Z,1.00
2023-02-26T14:00:35.739Z,1.00
2023-02-26T14:03:32.613Z,1.00
2023-02-26T14:06:44.823Z,1.00
2023-02-26T14:10:05.344Z,1.00
2023-02-26T14:12:37.205Z,1.00
2023-02-26T14:15:48.445Z,1.00
2023-02-26T14:18:42.846Z,1.00
2023-02-26T14:22:10.729Z,1.00
2023-02-26T14:24:40.016Z,1.00
2023-02-26T14:27:23.497Z,1.00
2023-02-26T14:30:18.221Z,1.00
2023-02-26T14:33:08.030Z,1.00
2023-02-26T14:35:47.617Z,1.00
2023-02-26T14:38:24.429Z,1.00
2023-02-26T14:40:57.432Z,1.00
2023-02-26T14:43:53.241Z,1.00
2023-02-26T14:46:20.461Z,1.00
2023-02-26T14:48:47.778Z,1.00
2023-02-26T14:51:41.456Z,1.00
2023-02-26T14:54:52.818Z,1.00
2023-02-26T14:57:30.708Z,1.00
2023-02-26T15:00:19.092Z,1.00
2023-02-26T15:03:39.682Z,1.00
2023-02-26T15:06:39.251Z,1.00
2023-02-26T15:09:47.534Z,1.00
2023-02-26T15:12:36.397Z,1.00
2023-02-26T15:15:17.543Z,1.00
2023-02-26T15:18:21.460Z,1.00
2023-02-26T15:21:05.259Z,1.00
2023-02-26T15:23:51.918Z,1.00
2023-02-26T15:26:47.921Z,1.00
2023-02-26T15:29:15.716Z,1.00
2023-02-26T15:31:48.129Z,1.00
2023-02-26T15:34:16.724Z,1.00
2023-02-26T15:36:46.212Z,1.00
2023-02-26T15:39:17.455Z,1.00
2023-02-26T15:41:47.583Z,1.00
2023-02-26T15:44:22.456Z,1.00
2023-02-26T15:46:56.312Z,1.00
2023-02-26T15:49:35.664Z,1.00
2023-02-26T15:52:04.415Z,1.00
2023-02-26T15:54:39.932Z,1.00
2023-02-26T15:57:07.322Z,1.00
2023-02-26T15:59:34.380Z,1.00
2023-02-26T16:02:02.940Z,1.00
2023-02-26T16:04:29.978Z,1.00
2023-02-26T16:07:00.425Z,1.00
2023-02-26T16:09:38.780Z,1.00
2023-02-26T16:12:13.769Z,1.00
2023-02-26T16:14:44.441Z,1.00
2023-02-26T16:17:18.047Z,1.00
2023-02-26T16:19:48.179Z,1.00
2023-02-26T16:22:50.358Z,1.00
2023-02-26T16:25:26.495Z,1.00
2023-02-26T16:28:00.924Z,1.00
2023-02-26T16:30:37.183Z,1.00
2023-02-26T16:33:05.757Z,1.00
2023-02-26T16:35:38.650Z,1.00
2023-02-26T16:38:25.099Z,1.00
2023-02-26T16:41:11.869Z,1.00
2023-02-26T16:43:59.055Z,1.00
2023-02-26T16:46:42.974Z,1.00
2023-02-26T16:49:32.176Z,1.00
2023-02-26T16:52:00.917Z,1.00
2023-02-26T16:54:41.630Z,1.00
2023-02-26T16:57:22.935Z,1.00
2023-02-26T16:59:58.062Z,1.00
2023-02-26T17:02:29.018Z,1.00
2023-02-26T17:05:03.503Z,1.00
2023-02-26T17:07:34.172Z,1.00
2023-02-26T17:10:38.060Z,1.00
2023-02-26T17:13:17.704Z,1.00
2023-02-26T17:15:46.664Z,1.00
2023-02-26T17:18:14.611Z,1.00
2023-02-26T17:20:42.158Z,1.00
2023-02-26T17:23:10.102Z,1.00
2023-02-26T17:25:42.636Z,1.00
2023-02-26T17:28:16.185Z,1.00
2023-02-26T17:30:43.372Z,1.00
2023-02-26T17:33:13.536Z,1.00
2023-02-26T17:35:41.222Z,1.00
2023-02-26T17:38:13.312Z,1.00
2023-02-26T17:40:41.511Z,1.00
2023-02-26T17:43:10.131Z,1.00
2023-02-26T17:45:40.350Z,1.00
2023-02-26T17:48:08.288Z,1.00
2023-02-26T17:50:48.758Z,1.00
2023-02-26T17:53:17.621Z,1.00
2023-02-26T17:55:46.991Z,1.00
2023-02-26T17:58:24.838Z,1.00
2023-02-26T18:00:53.389Z,1.00
2023-02-26T18:03:21.103Z,1.00
2023-02-26T18:05:49.213Z,1.00
2023-02-26T18:08:26.266Z,1.00
2023-02-26T18:10:54.437Z,1.00
2023-02-26T18:13:22.108Z,1.00
2023-02-26T18:15:50.699Z,1.00
2023-02-26T18:18:18.455Z,1.00
2023-02-26T18:20:46.213Z,1.00
2023-02-26T18:23:13.945Z,1.00
2023-02-26T18:25:41.829Z,1.00
2023-02-26T18:28:18.012Z,1.00
2023-02-26T18:30:45.213Z,1.00
2023-02-26T18:33:13.331Z,1.00
2023-02-26T18:35:45.945Z,1.00
2023-02-26T18:38:18.157Z,1.00
2023-02-26T18:40:46.449Z,1.00
2023-02-26T18:43:13.846Z,1.00
2023-02-26T18:45:42.497Z,1.00
2023-02-26T18:48:12.376Z,1.00
2023-02-26T18:50:39.552Z,1.00
2023-02-26T18:53:06.494Z,1.00
2023-02-26T18:55:33.401Z,1.00
2023-02-26T18:58:00.298Z,1.00
2023-02-26T19:00:28.820Z,1.00
2023-02-26T19:02:56.019Z,1.00
2023-02-26T19:05:24.771Z,1.00
2023-02-26T19:07:52.575Z,1.00
2023-02-26T19:10:20.051Z,1.00
2023-02-26T19:12:47.204Z,1.00
2023-02-26T19:15:14.414Z,1.00
2023-02-26T19:17:42.616Z,1.00
2023-02-26T19:20:10.617Z,1.00
2023-02-26T19:25:23.946Z,1.00
2023-02-26T19:27:54.371Z,1.00
2023-02-26T19:30:22.717Z,1.00
2023-02-26T19:32:50.306Z,1.00
2023-02-26T19:35:18.212Z,1.00
2023-02-26T19:37:45.389Z,1.00
2023-02-26T19:40:16.827Z,1.00
2023-02-26T19:42:44.392Z,1.00
2023-02-26T19:45:12.398Z,1.00
2023-02-26T19:47:39.463Z,1.00
2023-02-26T19:50:08.379Z,1.00
2023-02-26T19:52:37.302Z,1.00
2023-02-26T19:55:06.754Z,1.00
2023-02-26T19:57:34.235Z,1.00
2023-02-26T20:00:03.113Z,1.00
2023-02-26T20:02:30.142Z,1.00
2023-02-26T20:04:57.096Z,1.00
2023-02-26T20:07:25.658Z,1.00
2023-02-26T20:09:52.902Z,1.00
2023-02-26T20:12:20.107Z,1.00
2023-02-26T20:14:47.048Z,1.00
2023-02-26T20:17:14.019Z,1.00
2023-02-26T20:19:40.875Z,1.00
2023-02-26T20:22:07.829Z,1.00
2023-02-26T20:24:34.862Z,1.00
2023-02-26T20:27:01.736Z,1.00
2023-02-26T20:29:28.663Z,1.00
2023-02-26T20:31:55.838Z,1.00
2023-02-26T20:34:22.816Z,1.00
2023-02-26T20:36:50.748Z,1.00
2023-02-26T20:39:19.463Z,1.00
2023-02-26T20:41:46.497Z,1.00
2023-02-26T20:44:13.448Z,1.00
2023-02-26T20:46:40.434Z,1.00
2023-02-26T20:49:11.696Z,1.00
2023-02-26T20:51:43.315Z,1.00
2023-02-26T20:54:16.436Z,1.00
2023-02-26T20:56:43.718Z,1.00
2023-02-26T20:59:10.761Z,1.00
2023-02-26T21:01:37.787Z,1.00
2023-02-26T21:04:07.354Z,1.00
2023-02-26T21:06:35.041Z,1.00
2023-02-26T21:09:02.350Z,1.00
2023-02-26T21:11:36.628Z,1.00
2023-02-26T21:14:05.422Z,1.00
2023-02-26T21:16:32.515Z,1.00
2023-02-26T21:19:00.430Z,1.00
2023-02-26T21:21:27.806Z,1.00
2023-02-26T21:23:55.493Z,1.00
2023-02-26T21:26:23.142Z,1.00
2023-02-26T21:28:50.341Z,1.00
2023-02-26T21:31:19.058Z,1.00
2023-02-26T21:33:46.575Z,1.00
2023-02-26T21:36:14.523Z,1.00
2023-02-26T21:38:42.258Z,1.00
2023-02-26T21:41:09.199Z,1.00
2023-02-26T21:43:36.224Z,1.00
2023-02-26T21:46:04.067Z,1.30
2023-02-26T21:48:31.027Z,1.80
2023-02-26T21:50:59.784Z,2.80
2023-02-26T21:53:27.370Z,3.30
2023-02-26T21:55:55.512Z,3.30
2023-02-26T21:58:22.729Z,4.00
2023-02-26T22:00:49.891Z,5.10
2023-02-26T22:03:16.919Z,4.80
2023-02-26T22:05:43.882Z,4.80
2023-02-26T22:08:10.908Z,4.50
2023-02-26T22:10:37.995Z,4.80
2023-02-26T22:13:04.925Z,5.40
2023-02-26T22:15:31.770Z,5.90
2023-02-26T22:17:58.710Z,5.80
2023-02-26T22:20:25.797Z,5.90
2023-02-26T22:22:52.777Z,5.90
2023-02-26T22:25:20.022Z,6.90
2023-02-26T22:27:46.915Z,7.80
2023-02-26T22:30:14.213Z,9.00
2023-02-26T22:32:41.276Z,9.40
2023-02-26T22:35:08.598Z,9.50
2023-02-26T22:37:35.883Z,10.20
2023-02-26T22:40:03.911Z,11.00
2023-02-26T22:42:31.052Z,10.50
2023-02-26T22:44:57.936Z,10.20
2023-02-26T22:47:24.956Z,11.40
2023-02-26T22:49:51.870Z,11.70
2023-02-26T22:52:18.829Z,11.70
2023-02-26T22:54:46.542Z,12.10
2023-02-26T22:57:13.614Z,13.00
2023-02-26T22:59:40.564Z,13.00
2023-02-26T23:02:07.529Z,14.10
2023-02-26T23:04:34.450Z,15.70
2023-02-26T23:07:01.369Z,15.80
2023-02-26T23:09:28.554Z,15.70
2023-02-26T23:11:55.510Z,16.20
2023-02-26T23:14:22.849Z,16.80
2023-02-26T23:16:49.730Z,17.70
2023-02-26T23:19:16.718Z,19.40
2023-02-26T23:21:43.659Z,20.70
2023-02-26T23:24:10.574Z,20.70
2023-02-26T23:26:37.463Z,21.20
2023-02-26T23:29:06.376Z,22.20
2023-02-26T23:31:33.642Z,23.70
2023-02-26T23:34:01.006Z,25.60
2023-02-26T23:36:27.882Z,27.50
2023-02-26T23:38:54.747Z,28.50
2023-02-26T23:41:21.651Z,29.10
2023-02-26T23:43:48.781Z,28.70
2023-02-26T23:46:15.685Z,28.80
2023-02-26T23:48:42.752Z,28.00
2023-02-26T23:51:09.766Z,28.30
2023-02-26T23:53:36.646Z,28.50
2023-02-26T23:56:03.577Z,28.60
2023-02-26T23:58:31.106Z,29.50
